createdAt,value
2023-09-02T00:00:15.534Z,4.00
2023-09-02T00:02:42.563Z,3.60
2023-09-02T00:05:09.675Z,3.30
2023-09-02T00:07:36.806Z,3.50
2023-09-02T00:10:05.243Z,3.43
2023-09-02T00:12:32.186Z,4.37
2023-09-02T00:14:59.041Z,4.00
2023-09-02T00:17:25.937Z,3.83
2023-09-02T00:19:52.887Z,4.13
2023-09-02T00:22:19.662Z,4.17
2023-09-02T00:24:46.521Z,3.80
2023-09-02T00:27:13.348Z,3.40
2023-09-02T00:29:40.222Z,3.00
2023-09-02T00:32:07.100Z,3.47
2023-09-02T00:34:34.449Z,3.20
2023-09-02T00:37:01.303Z,4.10
2023-09-02T00:39:28.255Z,4.17
2023-09-02T00:41:56.931Z,6.17
2023-09-02T00:44:23.755Z,5.93
2023-09-02T00:46:50.611Z,8.37
2023-09-02T00:49:17.431Z,7.60
2023-09-02T00:51:44.480Z,9.37
2023-09-02T00:54:11.473Z,10.93
2023-09-02T00:56:38.519Z,10.97
2023-09-02T00:59:05.896Z,10.07
2023-09-02T01:01:34.901Z,12.07
2023-09-02T01:04:05.302Z,10.10
2023-09-02T01:06:32.806Z,7.90
2023-09-02T01:09:00.736Z,7.53
2023-09-02T01:11:28.256Z,8.70
2023-09-02T01:13:55.122Z,8.33
2023-09-02T01:16:22.757Z,9.33
2023-09-02T01:18:49.634Z,7.70
2023-09-02T01:21:37.768Z,9.13
2023-09-02T01:24:28.798Z,8.67
2023-09-02T01:27:11.782Z,8.73
2023-09-02T01:29:45.556Z,8.50
2023-09-02T01:32:13.530Z,8.80
2023-09-02T01:34:42.212Z,5.97
2023-09-02T01:37:09.982Z,4.93
2023-09-02T01:39:38.500Z,4.87
2023-09-02T01:42:06.538Z,4.03
2023-09-02T01:44:33.593Z,3.67
2023-09-02T01:47:02.469Z,3.67
2023-09-02T01:49:30.185Z,3.70
2023-09-02T01:51:58.208Z,3.43
2023-09-02T01:54:25.796Z,3.40
2023-09-02T01:56:53.103Z,3.60
2023-09-02T01:59:19.900Z,3.33
2023-09-02T02:01:47.281Z,2.90
2023-09-02T02:04:19.760Z,3.00
2023-09-02T02:06:47.340Z,2.43
2023-09-02T02:09:14.698Z,2.97
2023-09-02T02:11:42.252Z,3.20
2023-09-02T02:14:09.153Z,3.27
2023-09-02T02:16:36.145Z,3.37
2023-09-02T02:19:03.943Z,3.20
2023-09-02T02:21:31.988Z,4.00
2023-09-02T02:23:58.813Z,3.53
2023-09-02T02:26:25.642Z,3.73
2023-09-02T02:28:52.476Z,4.10
2023-09-02T02:31:19.352Z,3.40
2023-09-02T02:33:46.175Z,4.00
2023-09-02T02:36:12.992Z,3.30
2023-09-02T02:38:39.842Z,4.10
2023-09-02T02:41:06.688Z,4.63
2023-09-02T02:43:33.502Z,4.70
2023-09-02T02:46:00.608Z,4.10
2023-09-02T02:48:29.751Z,4.30
2023-09-02T02:50:57.111Z,4.60
2023-09-02T02:53:24.571Z,4.60
2023-09-02T02:55:51.619Z,4.80
2023-09-02T02:58:18.505Z,4.87
2023-09-02T03:00:45.840Z,5.00
2023-09-02T03:03:12.887Z,5.03
2023-09-02T03:05:40.687Z,5.20
2023-09-02T03:08:08.577Z,5.00
2023-09-02T03:10:36.857Z,5.27
2023-09-02T03:13:04.522Z,4.50
2023-09-02T03:15:31.668Z,6.00
2023-09-02T03:17:58.744Z,6.80
2023-09-02T03:20:25.675Z,5.40
2023-09-02T03:22:52.531Z,5.37
2023-09-02T03:25:19.359Z,4.50
2023-09-02T03:27:46.688Z,4.63
2023-09-02T03:30:13.741Z,4.93
2023-09-02T03:32:40.706Z,4.80
2023-09-02T03:35:09.278Z,5.73
2023-09-02T03:37:36.235Z,5.40
2023-09-02T03:40:04.716Z,6.20
2023-09-02T03:42:31.787Z,5.87
2023-09-02T03:44:59.302Z,5.73
2023-09-02T03:47:33.550Z,5.80
2023-09-02T03:50:00.518Z,6.10
2023-09-02T03:52:27.458Z,6.20
2023-09-02T03:54:54.291Z,6.07
2023-09-02T03:57:21.132Z,6.50
2023-09-02T03:59:47.969Z,6.40
2023-09-02T04:02:17.442Z,4.70
2023-09-02T04:04:44.250Z,5.30
2023-09-02T04:07:11.103Z,5.00
2023-09-02T04:09:37.951Z,5.00
2023-09-02T04:12:05.248Z,4.70
2023-09-02T04:14:32.035Z,3.90
2023-09-02T04:16:59.907Z,4.83
2023-09-02T04:19:26.788Z,3.53
2023-09-02T04:21:53.911Z,4.47
2023-09-02T04:24:20.760Z,4.77
2023-09-02T04:26:47.722Z,4.43
2023-09-02T04:29:14.472Z,5.10
2023-09-02T04:31:41.304Z,5.63
2023-09-02T04:34:08.087Z,5.40
2023-09-02T04:36:34.894Z,5.50
2023-09-02T04:39:08.220Z,5.50
2023-09-02T04:41:37.115Z,5.63
2023-09-02T04:44:04.151Z,5.60
2023-09-02T04:46:31.040Z,6.00
2023-09-02T04:48:57.914Z,6.97
2023-09-02T04:51:24.757Z,6.43
2023-09-02T04:53:51.528Z,6.67
2023-09-02T04:56:18.483Z,6.90
2023-09-02T04:58:45.317Z,7.10
2023-09-02T05:01:13.174Z,7.60
2023-09-02T05:03:40.094Z,7.10
2023-09-02T05:06:09.360Z,6.80
2023-09-02T05:08:36.481Z,6.17
2023-09-02T05:11:04.741Z,5.70
2023-09-02T05:13:32.231Z,4.63
2023-09-02T05:15:59.126Z,5.10
2023-09-02T05:18:26.025Z,4.00
2023-09-02T05:20:57.314Z,4.37
2023-09-02T05:23:24.337Z,5.00
2023-09-02T05:25:55.655Z,4.50
2023-09-02T05:28:26.813Z,5.10
2023-09-02T05:30:53.654Z,4.70
2023-09-02T05:33:20.879Z,4.87
2023-09-02T05:35:48.025Z,4.80
2023-09-02T05:38:14.869Z,4.60
2023-09-02T05:40:43.144Z,4.10
2023-09-02T05:43:10.410Z,4.17
2023-09-02T05:45:37.444Z,4.60
2023-09-02T05:48:05.169Z,4.20
2023-09-02T05:50:32.381Z,3.67
2023-09-02T05:52:59.958Z,3.93
2023-09-02T05:55:26.822Z,3.33
2023-09-02T05:57:53.640Z,3.30
2023-09-02T06:00:20.506Z,4.57
2023-09-02T06:02:47.478Z,3.83
2023-09-02T06:05:14.334Z,4.10
2023-09-02T06:07:41.163Z,4.30
2023-09-02T06:10:08.331Z,4.10
2023-09-02T06:12:35.137Z,4.07
2023-09-02T06:15:03.460Z,4.23
2023-09-02T06:17:32.939Z,4.63
2023-09-02T06:20:00.554Z,4.90
2023-09-02T06:22:27.784Z,5.10
2023-09-02T06:24:56.315Z,5.20
2023-09-02T06:27:23.531Z,5.30
2023-09-02T06:29:50.633Z,4.10
2023-09-02T06:32:17.486Z,4.63
2023-09-02T06:34:44.381Z,4.53
2023-09-02T06:37:11.215Z,5.07
2023-09-02T06:39:38.066Z,4.63
2023-09-02T06:42:05.240Z,6.33
2023-09-02T06:44:32.126Z,5.90
2023-09-02T06:46:58.966Z,6.60
2023-09-02T06:49:25.814Z,5.53
2023-09-02T06:51:52.666Z,6.40
2023-09-02T06:54:20.216Z,6.30
2023-09-02T06:56:47.057Z,7.20
2023-09-02T06:59:14.357Z,7.77
2023-09-02T07:01:41.468Z,6.93
2023-09-02T07:04:08.509Z,8.13
2023-09-02T07:06:35.593Z,6.57
2023-09-02T07:09:03.220Z,7.40
2023-09-02T07:11:30.078Z,7.20
2023-09-02T07:13:58.199Z,7.40
2023-09-02T07:16:27.644Z,6.90
2023-09-02T07:18:54.630Z,7.23
2023-09-02T07:21:24.219Z,6.70
2023-09-02T07:23:53.828Z,5.20
2023-09-02T07:26:22.014Z,4.43
2023-09-02T07:28:50.214Z,3.80
2023-09-02T07:31:18.112Z,4.03
2023-09-02T07:33:44.974Z,3.27
2023-09-02T07:36:13.272Z,3.80
2023-09-02T07:38:41.581Z,3.43
2023-09-02T07:41:10.201Z,4.00
2023-09-02T07:43:37.427Z,4.07
2023-09-02T07:46:05.247Z,4.07
2023-09-02T07:48:32.203Z,4.47
2023-09-02T07:50:59.124Z,3.67
2023-09-02T07:53:25.930Z,3.50
2023-09-02T07:55:52.743Z,3.83
2023-09-02T07:58:19.542Z,3.63
2023-09-02T08:00:46.521Z,3.73
2023-09-02T08:03:13.535Z,3.40
2023-09-02T08:05:40.646Z,4.10
2023-09-02T08:08:07.828Z,3.83
2023-09-02T08:10:37.210Z,4.13
2023-09-02T08:13:06.512Z,4.90
2023-09-02T08:15:33.373Z,5.00
2023-09-02T08:18:00.276Z,4.47
2023-09-02T08:20:27.581Z,4.40
2023-09-02T08:22:54.510Z,4.20
2023-09-02T08:25:21.424Z,4.70
2023-09-02T08:27:48.529Z,5.10
2023-09-02T08:30:16.235Z,4.50
2023-09-02T08:32:43.494Z,4.80
2023-09-02T08:35:13.250Z,3.70
2023-09-02T08:37:40.110Z,4.70
2023-09-02T08:40:07.716Z,3.80
2023-09-02T08:42:36.213Z,4.57
2023-09-02T08:45:07.966Z,5.47
2023-09-02T08:47:35.252Z,5.13
2023-09-02T08:50:03.273Z,5.27
2023-09-02T08:52:30.499Z,4.73
2023-09-02T08:54:57.322Z,4.83
2023-09-02T08:57:24.286Z,5.30
2023-09-02T08:59:51.489Z,4.47
2023-09-02T09:02:19.755Z,4.33
2023-09-02T09:04:49.834Z,5.13
2023-09-02T09:07:18.069Z,4.37
2023-09-02T09:09:46.611Z,3.93
2023-09-02T09:12:14.520Z,4.57
2023-09-02T09:14:43.803Z,3.97
2023-09-02T09:17:11.190Z,4.80
2023-09-02T09:19:38.002Z,4.53
2023-09-02T09:22:04.896Z,3.80
2023-09-02T09:24:31.830Z,4.77
2023-09-02T09:27:01.366Z,4.93
2023-09-02T09:29:41.348Z,4.30
2023-09-02T09:32:14.090Z,4.27
2023-09-02T09:34:45.145Z,4.00
2023-09-02T09:37:12.247Z,4.83
2023-09-02T09:39:44.303Z,4.00
2023-09-02T09:42:13.345Z,3.90
2023-09-02T09:44:55.709Z,4.37
2023-09-02T09:47:23.674Z,4.07
2023-09-02T09:49:50.708Z,4.10
2023-09-02T09:52:19.185Z,4.50
2023-09-02T09:54:50.891Z,4.37
2023-09-02T09:57:30.590Z,5.20
2023-09-02T09:59:58.082Z,5.10
2023-09-02T10:02:25.389Z,5.30
2023-09-02T10:04:56.436Z,4.87
2023-09-02T10:07:28.515Z,5.50
2023-09-02T10:09:56.733Z,4.47
2023-09-02T10:12:23.852Z,5.27
2023-09-02T10:14:51.309Z,4.27
2023-09-02T10:17:18.827Z,4.80
2023-09-02T10:19:46.609Z,3.60
2023-09-02T10:22:20.352Z,4.13
2023-09-02T10:25:00.160Z,4.40
2023-09-02T10:27:27.896Z,4.40
2023-09-02T10:29:59.069Z,4.30
2023-09-02T10:32:30.106Z,4.53
2023-09-02T10:35:06.078Z,5.00
2023-09-02T10:37:46.420Z,4.93
2023-09-02T10:40:21.258Z,4.10
2023-09-02T10:42:49.891Z,3.87
2023-09-02T10:45:18.256Z,4.97
2023-09-02T10:47:49.090Z,4.37
2023-09-02T10:50:18.117Z,4.10
2023-09-02T10:52:45.132Z,3.90
2023-09-02T10:55:13.086Z,4.13
2023-09-02T10:57:56.926Z,4.60
2023-09-02T11:00:25.977Z,4.23
2023-09-02T11:02:54.831Z,5.50
2023-09-02T11:05:23.668Z,5.10
2023-09-02T11:07:50.785Z,3.80
2023-09-02T11:10:18.742Z,3.63
2023-09-02T11:13:00.603Z,4.77
2023-09-02T11:15:30.753Z,4.17
2023-09-02T11:17:57.767Z,3.40
2023-09-02T11:20:29.164Z,3.60
2023-09-02T11:23:02.718Z,3.90
2023-09-02T11:25:35.672Z,3.23
2023-09-02T11:28:08.120Z,3.33
2023-09-02T11:30:39.329Z,3.63
2023-09-02T11:33:10.379Z,3.10
2023-09-02T11:35:38.325Z,2.90
2023-09-02T11:38:19.020Z,3.33
2023-09-02T11:40:47.132Z,3.20
2023-09-02T11:43:20.857Z,3.20
2023-09-02T11:45:48.022Z,3.10
2023-09-02T11:48:14.812Z,3.07
2023-09-02T11:50:41.627Z,2.97
2023-09-02T11:53:08.439Z,2.80
2023-09-02T11:55:37.129Z,2.97
2023-09-02T11:58:09.096Z,2.10
2023-09-02T12:00:42.499Z,2.30
2023-09-02T12:03:09.440Z,2.73
2023-09-02T12:06:02.280Z,2.27
2023-09-02T12:08:32.890Z,2.00
2023-09-02T12:11:06.390Z,1.50
2023-09-02T12:13:34.310Z,2.10
2023-09-02T12:16:01.229Z,2.20
2023-09-02T12:18:28.706Z,2.20
2023-09-02T12:20:55.674Z,2.07
2023-09-02T12:23:23.725Z,1.83
2023-09-02T12:26:07.569Z,1.80
2023-09-02T12:28:34.653Z,1.87
2023-09-02T12:31:04.271Z,1.50
2023-09-02T12:33:31.480Z,1.50
2023-09-02T12:35:58.364Z,1.77
2023-09-02T12:38:25.216Z,1.30
2023-09-02T12:40:56.146Z,1.40
2023-09-02T12:43:28.390Z,1.37
2023-09-02T12:45:56.269Z,1.70
2023-09-02T12:48:23.438Z,1.20
2023-09-02T12:50:50.292Z,1.37
2023-09-02T12:53:17.604Z,1.60
2023-09-02T12:55:45.498Z,1.43
2023-09-02T12:58:12.483Z,1.43
2023-09-02T13:00:39.264Z,1.53
2023-09-02T13:03:06.419Z,1.50
2023-09-02T13:05:33.368Z,1.43
2023-09-02T13:08:00.400Z,1.53
2023-09-02T13:10:27.235Z,1.67
2023-09-02T13:12:54.662Z,1.43
2023-09-02T13:15:23.594Z,1.10
2023-09-02T13:17:50.442Z,1.40
2023-09-02T13:20:18.253Z,1.40
2023-09-02T13:22:47.315Z,1.43
2023-09-02T13:25:16.301Z,1.63
2023-09-02T13:27:43.333Z,1.73
2023-09-02T13:30:10.620Z,1.50
2023-09-02T13:32:39.629Z,1.83
2023-09-02T13:35:24.979Z,1.77
2023-09-02T13:37:51.893Z,1.20
2023-09-02T13:40:19.791Z,1.37
2023-09-02T13:42:48.104Z,1.27
2023-09-02T13:45:14.867Z,1.30
2023-09-02T13:47:50.192Z,1.60
2023-09-02T13:50:18.812Z,1.80
2023-09-02T13:52:51.641Z,1.60
2023-09-02T13:55:22.723Z,1.73
2023-09-02T13:57:52.992Z,1.20
2023-09-02T14:00:27.227Z,1.30
2023-09-02T14:02:57.610Z,1.43
2023-09-02T14:05:25.210Z,1.70
2023-09-02T14:07:55.593Z,1.40
2023-09-02T14:10:22.519Z,1.40
2023-09-02T14:12:50.002Z,1.30
2023-09-02T14:15:17.203Z,1.10
2023-09-02T14:17:44.496Z,1.30
2023-09-02T14:20:12.015Z,1.10
2023-09-02T14:22:39.478Z,1.30
2023-09-02T14:25:06.914Z,1.30
2023-09-02T14:27:35.392Z,1.10
2023-09-02T14:30:02.252Z,1.00
2023-09-02T14:32:29.087Z,1.27
2023-09-02T14:34:55.988Z,1.10
2023-09-02T14:37:22.797Z,1.13
2023-09-02T14:39:49.624Z,1.10
2023-09-02T14:42:16.518Z,1.20
2023-09-02T14:44:43.514Z,1.40
2023-09-02T14:47:12.138Z,1.10
2023-09-02T14:49:39.383Z,1.23
2023-09-02T14:52:06.483Z,0.80
2023-09-02T14:54:44.353Z,0.90
2023-09-02T14:57:14.066Z,1.23
2023-09-02T14:59:45.279Z,1.20
2023-09-02T15:02:22.088Z,1.00
2023-09-02T15:04:50.388Z,1.07
2023-09-02T15:07:17.201Z,0.90
2023-09-02T15:09:44.155Z,0.90
2023-09-02T15:12:13.479Z,1.10
2023-09-02T15:14:40.305Z,1.30
2023-09-02T15:17:07.649Z,1.10
2023-09-02T15:19:34.678Z,1.20
2023-09-02T15:22:02.740Z,1.20
2023-09-02T15:24:33.048Z,1.10
2023-09-02T15:27:01.147Z,1.77
2023-09-02T15:29:28.348Z,1.00
2023-09-02T15:31:55.325Z,1.30
2023-09-02T15:34:22.493Z,1.30
2023-09-02T15:36:50.007Z,1.57
2023-09-02T15:39:25.929Z,1.20
2023-09-02T15:41:53.409Z,1.10
2023-09-02T15:44:20.320Z,1.23
2023-09-02T15:46:47.159Z,1.10
2023-09-02T15:49:14.056Z,0.90
2023-09-02T15:51:40.935Z,1.27
2023-09-02T15:54:07.977Z,1.30
2023-09-02T15:56:34.906Z,1.00
2023-09-02T15:59:01.764Z,1.13
2023-09-02T16:01:28.665Z,1.17
2023-09-02T16:03:55.766Z,1.07
2023-09-02T16:06:22.639Z,1.13
2023-09-02T16:08:49.457Z,1.10
2023-09-02T16:11:16.287Z,1.07
2023-09-02T16:13:43.126Z,0.97
2023-09-02T16:16:10.089Z,1.10
2023-09-02T16:18:37.631Z,1.00
2023-09-02T16:21:04.534Z,1.10
2023-09-02T16:23:31.362Z,1.10
2023-09-02T16:25:58.172Z,1.20
2023-09-02T16:28:24.987Z,1.10
2023-09-02T16:30:52.037Z,1.00
2023-09-02T16:33:19.050Z,1.33
2023-09-02T16:35:46.137Z,0.90
2023-09-02T16:38:13.923Z,2.83
2023-09-02T16:40:40.811Z,2.90
2023-09-02T16:43:07.616Z,3.40
2023-09-02T16:45:34.814Z,1.70
2023-09-02T16:48:10.078Z,1.30
2023-09-02T16:50:37.884Z,1.20
2023-09-02T16:53:05.081Z,1.00
2023-09-02T16:55:32.810Z,1.00
2023-09-02T16:57:59.672Z,0.90
2023-09-02T17:00:34.533Z,2.10
2023-09-02T17:03:04.307Z,1.17
2023-09-02T17:05:33.725Z,1.80
2023-09-02T17:08:00.825Z,3.77
2023-09-02T17:10:31.429Z,3.90
2023-09-02T17:12:58.733Z,10.43
2023-09-02T17:15:33.488Z,11.73
2023-09-02T17:18:00.794Z,6.90
2023-09-02T17:20:34.273Z,9.40
2023-09-02T17:23:10.036Z,4.63
2023-09-02T17:25:37.895Z,4.60
2023-09-02T17:28:07.537Z,3.87
2023-09-02T17:30:35.041Z,4.50
2023-09-02T17:33:01.977Z,3.70
2023-09-02T17:35:28.808Z,4.30
2023-09-02T17:37:56.325Z,4.67
2023-09-02T17:40:23.196Z,3.77
2023-09-02T17:42:49.966Z,2.03
2023-09-02T17:45:16.924Z,2.10
2023-09-02T17:47:45.719Z,2.80
2023-09-02T17:50:13.453Z,2.37
2023-09-02T17:52:40.522Z,2.97
2023-09-02T17:55:08.086Z,2.80
2023-09-02T17:57:36.091Z,3.00
2023-09-02T18:00:04.278Z,2.53
2023-09-02T18:02:31.445Z,2.97
2023-09-02T18:05:04.470Z,2.20
2023-09-02T18:07:32.025Z,2.00
2023-09-02T18:09:58.891Z,2.30
2023-09-02T18:12:25.764Z,1.87
2023-09-02T18:14:52.548Z,2.07
2023-09-02T18:17:19.409Z,1.77
2023-09-02T18:19:46.466Z,1.70
2023-09-02T18:22:13.340Z,1.30
2023-09-02T18:24:40.166Z,1.70
2023-09-02T18:27:07.455Z,1.77
2023-09-02T18:29:34.596Z,1.57
2023-09-02T18:32:01.592Z,1.60
2023-09-02T18:34:29.157Z,1.80
2023-09-02T18:36:56.099Z,2.17
2023-09-02T18:39:25.321Z,2.23
2023-09-02T18:41:52.649Z,2.60
2023-09-02T18:44:20.217Z,3.40
2023-09-02T18:46:49.238Z,2.70
2023-09-02T18:49:16.127Z,2.70
2023-09-02T18:51:42.953Z,2.87
2023-09-02T18:54:10.858Z,2.80
2023-09-02T18:56:38.066Z,2.43
2023-09-02T18:59:05.259Z,1.97
2023-09-02T19:01:32.710Z,2.83
2023-09-02T19:04:00.652Z,2.60
2023-09-02T19:06:27.596Z,2.37
2023-09-02T19:08:54.400Z,2.07
2023-09-02T19:11:21.249Z,2.10
2023-09-02T19:13:48.089Z,2.23
2023-09-02T19:16:14.955Z,2.13
2023-09-02T19:18:41.791Z,2.20
2023-09-02T19:21:08.735Z,2.30
2023-09-02T19:23:35.889Z,2.10
2023-09-02T19:26:02.686Z,2.60
2023-09-02T19:28:29.528Z,2.40
2023-09-02T19:30:58.270Z,2.73
2023-09-02T19:33:25.210Z,3.20
2023-09-02T19:35:52.033Z,3.20
2023-09-02T19:38:18.985Z,3.70
2023-09-02T19:40:46.038Z,2.80
2023-09-02T19:43:12.835Z,3.10
2023-09-02T19:45:39.683Z,3.00
2023-09-02T19:48:06.758Z,3.00
2023-09-02T19:50:35.565Z,2.83
2023-09-02T19:53:02.916Z,4.83
2023-09-02T19:55:29.838Z,3.73
2023-09-02T19:57:56.652Z,3.63
2023-09-02T20:00:23.544Z,3.03
2023-09-02T20:02:50.779Z,3.47
2023-09-02T20:05:17.662Z,3.57
2023-09-02T20:07:44.479Z,4.20
2023-09-02T20:10:15.829Z,3.77
2023-09-02T20:12:45.462Z,3.63
2023-09-02T20:15:13.441Z,4.53
2023-09-02T20:17:41.966Z,4.20
2023-09-02T20:20:09.428Z,4.67
2023-09-02T20:22:36.256Z,4.73
2023-09-02T20:25:03.197Z,4.70
2023-09-02T20:27:30.056Z,4.00
2023-09-02T20:29:56.868Z,4.87
2023-09-02T20:32:23.710Z,5.17
2023-09-02T20:34:50.527Z,4.93
2023-09-02T20:37:17.423Z,4.87
2023-09-02T20:39:44.234Z,4.93
2023-09-02T20:42:11.055Z,4.70
2023-09-02T20:44:37.807Z,5.70
2023-09-02T20:47:04.870Z,4.33
2023-09-02T20:49:31.705Z,4.67
2023-09-02T20:51:58.511Z,6.10
2023-09-02T20:54:25.379Z,6.27
2023-09-02T20:56:52.256Z,5.70
2023-09-02T20:59:19.141Z,5.47
2023-09-02T21:01:46.050Z,11.17
2023-09-02T21:04:15.185Z,12.83
2023-09-02T21:06:43.724Z,12.27
2023-09-02T21:09:10.577Z,13.60
2023-09-02T21:11:37.380Z,13.53
2023-09-02T21:14:04.315Z,12.20
2023-09-02T21:16:31.136Z,12.60
2023-09-02T21:18:57.960Z,12.60
2023-09-02T21:21:24.850Z,10.37
2023-09-02T21:23:51.935Z,12.13
2023-09-02T21:26:18.897Z,11.77
2023-09-02T21:28:50.920Z,12.17
2023-09-02T21:31:17.952Z,10.43
2023-09-02T21:33:45.200Z,10.07
2023-09-02T21:36:18.896Z,10.80
2023-09-02T21:38:49.661Z,9.67
2023-09-02T21:41:16.631Z,11.50
2023-09-02T21:43:43.546Z,10.53
2023-09-02T21:46:11.500Z,10.60
2023-09-02T21:48:39.806Z,11.00
2023-09-02T21:51:08.616Z,10.93
2023-09-02T21:53:39.499Z,11.10
2023-09-02T21:56:06.302Z,10.33
2023-09-02T21:58:33.210Z,11.23
2023-09-02T22:01:05.345Z,13.70
2023-09-02T22:03:33.774Z,13.43
2023-09-02T22:06:11.279Z,10.90
2023-09-02T22:08:41.989Z,10.53
2023-09-02T22:11:09.173Z,8.90
2023-09-02T22:13:36.112Z,11.37
2023-09-02T22:16:03.464Z,10.40
2023-09-02T22:18:30.442Z,9.70
2023-09-02T22:20:58.118Z,10.33
2023-09-02T22:23:26.656Z,9.53
2023-09-02T22:26:04.665Z,12.07
2023-09-02T22:28:33.157Z,12.37
2023-09-02T22:31:00.667Z,11.00
2023-09-02T22:33:29.153Z,10.73
2023-09-02T22:35:56.101Z,11.80
2023-09-02T22:38:31.207Z,10.17
2023-09-02T22:41:05.315Z,10.37
2023-09-02T22:43:32.596Z,10.57
2023-09-02T22:45:59.829Z,10.73
2023-09-02T22:48:26.683Z,10.83
2023-09-02T22:50:53.725Z,9.83
2023-09-02T22:53:21.243Z,10.90
2023-09-02T22:55:48.854Z,10.17
2023-09-02T22:58:16.576Z,10.13
2023-09-02T23:00:43.482Z,8.43
2023-09-02T23:03:10.319Z,8.87
2023-09-02T23:05:37.809Z,8.07
2023-09-02T23:08:05.082Z,6.87
2023-09-02T23:10:33.901Z,7.27
2023-09-02T23:13:01.560Z,7.53
2023-09-02T23:15:28.597Z,8.90
2023-09-02T23:17:55.545Z,10.07
2023-09-02T23:20:22.542Z,10.13
2023-09-02T23:22:50.510Z,10.20
2023-09-02T23:25:17.786Z,11.17
2023-09-02T23:27:49.810Z,10.97
2023-09-02T23:30:17.058Z,11.37
2023-09-02T23:32:44.489Z,11.07
2023-09-02T23:35:11.342Z,11.90
2023-09-02T23:37:38.234Z,9.90
2023-09-02T23:40:05.474Z,9.37
2023-09-02T23:42:32.268Z,8.53
2023-09-02T23:45:00.530Z,10.10
2023-09-02T23:47:27.449Z,9.30
2023-09-02T23:49:54.286Z,8.43
2023-09-02T23:52:21.672Z,10.03
2023-09-02T23:54:48.516Z,8.03
2023-09-02T23:57:15.302Z,8.83
2023-09-02T23:59:42.099Z,9.10
